sensor_id;sensor_type;location;lat;lon;timestamp;pressure;altitude;pressure_sealevel;temperature;humidity
29197;BME280;62796;42.654;23.316;2023-06-10T00:01:44;94201.88;;;20.25;65.84
29197;BME280;62796;42.654;23.316;2023-06-10T00:04:15;94199.97;;;20.20;66.09
29197;BME280;62796;42.654;23.316;2023-06-10T00:06:43;94208.59;;;20.22;66.17
29197;BME280;62796;42.654;23.316;2023-06-10T00:09:09;94204.69;;;20.25;66.02
29197;BME280;62796;42.654;23.316;2023-06-10T00:11:36;94208.59;;;20.22;66.17
29197;BME280;62796;42.654;23.316;2023-06-10T00:14:01;94204.47;;;20.23;65.43
29197;BME280;62796;42.654;23.316;2023-06-10T00:16:27;94202.59;;;20.18;65.31
29197;BME280;62796;42.654;23.316;2023-06-10T00:18:52;94208.00;;;20.16;65.17
29197;BME280;62796;42.654;23.316;2023-06-10T00:21:21;94215.06;;;20.02;65.79
29197;BME280;62796;42.654;23.316;2023-06-10T00:23:46;94213.72;;;19.96;65.74
29197;BME280;62796;42.654;23.316;2023-06-10T00:26:12;94211.22;;;19.77;66.16
29197;BME280;62796;42.654;23.316;2023-06-10T00:28:37;94223.34;;;19.72;66.08
29197;BME280;62796;42.654;23.316;2023-06-10T00:31:02;94219.78;;;19.71;65.83
29197;BME280;62796;42.654;23.316;2023-06-10T00:33:29;94227.47;;;19.71;65.89
29197;BME280;62796;42.654;23.316;2023-06-10T00:35:55;94218.13;;;19.76;65.70
29197;BME280;62796;42.654;23.316;2023-06-10T00:38:20;94215.13;;;19.74;65.33
29197;BME280;62796;42.654;23.316;2023-06-10T00:40:46;94219.25;;;19.73;64.77
29197;BME280;62796;42.654;23.316;2023-06-10T00:43:11;94219.03;;;19.71;64.91
29197;BME280;62796;42.654;23.316;2023-06-10T00:45:36;94212.66;;;19.70;64.99
29197;BME280;62796;42.654;23.316;2023-06-10T00:48:03;94206.28;;;19.70;65.11
29197;BME280;62796;42.654;23.316;2023-06-10T00:50:28;94212.44;;;19.68;65.46
29197;BME280;62796;42.654;23.316;2023-06-10T00:52:56;94209.84;;;19.70;65.52
29197;BME280;62796;42.654;23.316;2023-06-10T00:55:22;94213.44;;;19.71;65.55
29197;BME280;62796;42.654;23.316;2023-06-10T00:57:48;94216.25;;;19.71;65.15
29197;BME280;62796;42.654;23.316;2023-06-10T01:00:15;94211.75;;;19.75;65.11
29197;BME280;62796;42.654;23.316;2023-06-10T01:02:41;94212.50;;;19.76;65.24
29197;BME280;62796;42.654;23.316;2023-06-10T01:05:08;94216.25;;;19.71;65.27
29197;BME280;62796;42.654;23.316;2023-06-10T01:07:40;94215.03;;;19.59;65.93
29197;BME280;62796;42.654;23.316;2023-06-10T01:15:08;94216.75;;;19.62;65.27
29197;BME280;62796;42.654;23.316;2023-06-10T01:17:52;94221.38;;;19.59;65.65
29197;BME280;62796;42.654;23.316;2023-06-10T01:20:18;94226.47;;;19.61;65.44
29197;BME280;62796;42.654;23.316;2023-06-10T01:22:44;94225.16;;;19.62;65.53
29197;BME280;62796;42.654;23.316;2023-06-10T01:25:11;94233.78;;;19.64;65.91
29197;BME280;62796;42.654;23.316;2023-06-10T01:27:38;94225.56;;;19.66;65.77
29197;BME280;62796;42.654;23.316;2023-06-10T01:30:09;94213.22;;;19.69;65.58
29197;BME280;62796;42.654;23.316;2023-06-10T01:32:44;94220.53;;;19.72;65.25
29197;BME280;62796;42.654;23.316;2023-06-10T01:35:11;94218.81;;;19.69;65.28
29197;BME280;62796;42.654;23.316;2023-06-10T01:37:38;94220.34;;;19.70;65.42
29197;BME280;62796;42.654;23.316;2023-06-10T01:40:05;94210.91;;;19.60;65.49
29197;BME280;62796;42.654;23.316;2023-06-10T01:42:31;94220.34;;;19.70;65.65
29197;BME280;62796;42.654;23.316;2023-06-10T01:44:57;94219.25;;;19.73;65.89
29197;BME280;62796;42.654;23.316;2023-06-10T01:47:23;94216.63;;;19.75;65.99
29197;BME280;62796;42.654;23.316;2023-06-10T01:49:48;94216.63;;;19.75;66.01
29197;BME280;62796;42.654;23.316;2023-06-10T01:52:14;94212.50;;;19.76;65.91
29197;BME280;62796;42.654;23.316;2023-06-10T01:54:39;94220.03;;;19.81;65.80
29197;BME280;62796;42.654;23.316;2023-06-10T01:57:05;94211.94;;;19.77;66.19
29197;BME280;62796;42.654;23.316;2023-06-10T01:59:31;94202.38;;;19.73;66.01
29197;BME280;62796;42.654;23.316;2023-06-10T02:01:57;94200.91;;;19.79;65.89
29197;BME280;62796;42.654;23.316;2023-06-10T02:04:22;94194.91;;;19.75;65.78
29197;BME280;62796;42.654;23.316;2023-06-10T02:06:47;94196.75;;;19.73;65.70
29197;BME280;62796;42.654;23.316;2023-06-10T02:09:13;94200.28;;;19.66;65.79
29197;BME280;62796;42.654;23.316;2023-06-10T02:11:39;94203.59;;;19.57;65.94
29197;BME280;62796;42.654;23.316;2023-06-10T02:14:04;94191.75;;;19.51;66.04
29197;BME280;62796;42.654;23.316;2023-06-10T02:16:29;94194.78;;;19.53;65.38
29197;BME280;62796;42.654;23.316;2023-06-10T02:18:56;94188.56;;;19.47;65.12
29197;BME280;62796;42.654;23.316;2023-06-10T02:21:22;94182.59;;;19.29;65.41
29197;BME280;62796;42.654;23.316;2023-06-10T02:23:47;94179.00;;;19.21;65.65
29197;BME280;62796;42.654;23.316;2023-06-10T02:26:12;94183.75;;;19.34;66.00
29197;BME280;62796;42.654;23.316;2023-06-10T02:28:38;94147.72;;;19.17;66.18
29197;BME280;62796;42.654;23.316;2023-06-10T02:31:03;94171.47;;;19.45;66.59
29197;BME280;62796;42.654;23.316;2023-06-10T02:33:29;94178.28;;;19.49;66.30
29197;BME280;62796;42.654;23.316;2023-06-10T02:35:55;94173.78;;;19.54;66.45
29197;BME280;62796;42.654;23.316;2023-06-10T02:38:21;94171.94;;;19.56;66.55
29197;BME280;62796;42.654;23.316;2023-06-10T02:40:46;94172.34;;;19.60;66.76
29197;BME280;62796;42.654;23.316;2023-06-10T02:43:12;94177.78;;;19.66;66.56
29197;BME280;62796;42.654;23.316;2023-06-10T02:45:37;94162.03;;;19.63;66.29
29197;BME280;62796;42.654;23.316;2023-06-10T02:48:02;94172.97;;;19.74;65.89
29197;BME280;62796;42.654;23.316;2023-06-10T02:50:28;94168.84;;;19.75;66.36
29197;BME280;62796;42.654;23.316;2023-06-10T02:52:53;94166.44;;;19.79;66.65
29197;BME280;62796;42.654;23.316;2023-06-10T02:55:19;94160.47;;;19.82;65.95
29197;BME280;62796;42.654;23.316;2023-06-10T02:57:44;94155.59;;;19.83;65.76
29197;BME280;62796;42.654;23.316;2023-06-10T03:00:10;94160.47;;;19.82;65.43
29197;BME280;62796;42.654;23.316;2023-06-10T03:02:37;94158.38;;;19.75;65.50
29197;BME280;62796;42.654;23.316;2023-06-10T03:05:04;94164.16;;;19.77;65.48
29197;BME280;62796;42.654;23.316;2023-06-10T03:07:30;94169.78;;;19.77;65.51
29197;BME280;62796;42.654;23.316;2023-06-10T03:09:56;94174.13;;;19.78;65.70
29197;BME280;62796;42.654;23.316;2023-06-10T03:12:21;94173.56;;;19.80;65.67
29197;BME280;62796;42.654;23.316;2023-06-10T03:14:47;94174.31;;;19.80;65.96
29197;BME280;62796;42.654;23.316;2023-06-10T03:17:12;94166.84;;;19.83;65.61
29197;BME280;62796;42.654;23.316;2023-06-10T03:19:38;94169.44;;;19.81;65.24
29197;BME280;62796;42.654;23.316;2023-06-10T03:22:11;94183.72;;;19.83;65.18
29197;BME280;62796;42.654;23.316;2023-06-10T03:24:36;94185.19;;;19.84;65.18
29197;BME280;62796;42.654;23.316;2023-06-10T03:27:07;94188.22;;;19.86;65.77
29197;BME280;62796;42.654;23.316;2023-06-10T03:29:32;94192.50;;;19.87;65.99
29197;BME280;62796;42.654;23.316;2023-06-10T03:31:58;94199.47;;;19.86;66.19
29197;BME280;62796;42.654;23.316;2023-06-10T03:34:23;94203.97;;;19.89;65.86
29197;BME280;62796;42.654;23.316;2023-06-10T03:36:49;94200.94;;;19.87;65.58
29197;BME280;62796;42.654;23.316;2023-06-10T03:39:15;94205.09;;;19.86;65.86
29197;BME280;62796;42.654;23.316;2023-06-10T03:41:41;94196.06;;;19.80;65.86
29197;BME280;62796;42.654;23.316;2023-06-10T03:44:06;94210.47;;;19.84;66.09
29197;BME280;62796;42.654;23.316;2023-06-10T03:46:32;94205.25;;;19.88;66.09
29197;BME280;62796;42.654;23.316;2023-06-10T03:48:57;94209.59;;;19.89;66.12
29197;BME280;62796;42.654;23.316;2023-06-10T03:51:26;94197.34;;;19.79;66.39
29197;BME280;62796;42.654;23.316;2023-06-10T03:53:51;94200.16;;;19.79;66.19
29197;BME280;62796;42.654;23.316;2023-06-10T03:56:17;94201.28;;;19.76;66.21
29197;BME280;62796;42.654;23.316;2023-06-10T03:58:42;94201.97;;;19.69;66.28
29197;BME280;62796;42.654;23.316;2023-06-10T04:01:07;94198.97;;;19.67;66.34
29197;BME280;62796;42.654;23.316;2023-06-10T04:03:33;94195.97;;;19.65;66.50
29197;BME280;62796;42.654;23.316;2023-06-10T04:05:58;94187.47;;;19.57;66.67
29197;BME280;62796;42.654;23.316;2023-06-10T04:08:24;94201.59;;;19.65;66.58
29197;BME280;62796;42.654;23.316;2023-06-10T04:10:49;94193.53;;;19.69;66.19
29197;BME280;62796;42.654;23.316;2023-06-10T04:13:14;94193.75;;;19.71;66.26
29197;BME280;62796;42.654;23.316;2023-06-10T04:15:40;94205.00;;;19.71;66.38
29197;BME280;62796;42.654;23.316;2023-06-10T04:18:06;94199.00;;;19.74;66.41
29197;BME280;62796;42.654;23.316;2023-06-10T04:20:31;94200.94;;;19.87;66.01
29197;BME280;62796;42.654;23.316;2023-06-10T04:22:57;94211.44;;;19.86;66.38
29197;BME280;62796;42.654;23.316;2023-06-10T04:25:22;94209.38;;;19.87;66.34
29197;BME280;62796;42.654;23.316;2023-06-10T04:27:49;94202.81;;;19.84;66.50
29197;BME280;62796;42.654;23.316;2023-06-10T04:30:16;94213.66;;;19.80;66.58
29197;BME280;62796;42.654;23.316;2023-06-10T04:32:41;94218.91;;;19.84;66.84
29197;BME280;62796;42.654;23.316;2023-06-10T04:35:07;94208.06;;;19.88;66.91
29197;BME280;62796;42.654;23.316;2023-06-10T04:37:33;94205.09;;;19.86;67.23
29197;BME280;62796;42.654;23.316;2023-06-10T04:39:58;94203.22;;;19.88;66.84
29197;BME280;62796;42.654;23.316;2023-06-10T04:42:24;94204.91;;;19.92;66.88
29197;BME280;62796;42.654;23.316;2023-06-10T04:44:50;94217.09;;;19.94;66.91
29197;BME280;62796;42.654;23.316;2023-06-10T04:47:15;94217.28;;;19.96;66.94
29197;BME280;62796;42.654;23.316;2023-06-10T04:49:42;94211.84;;;19.98;66.78
29197;BME280;62796;42.654;23.316;2023-06-10T04:52:07;94210.75;;;20.01;66.87
29197;BME280;62796;42.654;23.316;2023-06-10T04:54:33;94198.41;;;20.04;66.96
29197;BME280;62796;42.654;23.316;2023-06-10T04:56:58;94208.53;;;20.07;66.91
29197;BME280;62796;42.654;23.316;2023-06-10T04:59:25;94205.19;;;20.09;66.99
29197;BME280;62796;42.654;23.316;2023-06-10T05:01:50;94208.53;;;20.07;66.81
29197;BME280;62796;42.654;23.316;2023-06-10T05:04:16;94208.75;;;20.09;66.92
29197;BME280;62796;42.654;23.316;2023-06-10T05:06:41;94200.31;;;20.09;66.84
29197;BME280;62796;42.654;23.316;2023-06-10T05:09:07;94212.66;;;20.06;67.12
29197;BME280;62796;42.654;23.316;2023-06-10T05:11:32;94198.44;;;20.12;67.11
29197;BME280;62796;42.654;23.316;2023-06-10T05:13:57;94197.31;;;20.15;67.06
29197;BME280;62796;42.654;23.316;2023-06-10T05:16:23;94202.00;;;20.12;67.14
29197;BME280;62796;42.654;23.316;2023-06-10T05:18:48;94202.19;;;20.14;67.20
29197;BME280;62796;42.654;23.316;2023-06-10T05:21:16;94200.91;;;20.15;67.09
29197;BME280;62796;42.654;23.316;2023-06-10T05:23:41;94198.84;;;20.16;67.13
29197;BME280;62796;42.654;23.316;2023-06-10T05:26:06;94185.69;;;20.11;66.96
29197;BME280;62796;42.654;23.316;2023-06-10T05:28:32;94201.06;;;20.17;67.27
29197;BME280;62796;42.654;23.316;2023-06-10T05:30:57;94205.59;;;20.20;67.34
29197;BME280;62796;42.654;23.316;2023-06-10T05:33:23;94201.88;;;20.25;67.02
29197;BME280;62796;42.654;23.316;2023-06-10T05:35:48;94200.75;;;20.28;66.78
29197;BME280;62796;42.654;23.316;2023-06-10T05:38:14;94209.41;;;20.30;66.57
29197;BME280;62796;42.654;23.316;2023-06-10T05:40:39;94202.69;;;20.33;66.73
29197;BME280;62796;42.654;23.316;2023-06-10T05:43:05;94199.66;;;20.31;66.48
29197;BME280;62796;42.654;23.316;2023-06-10T05:45:30;94203.25;;;20.47;65.97
29197;BME280;62796;42.654;23.316;2023-06-10T05:47:55;94213.19;;;20.40;65.88
29197;BME280;62796;42.654;23.316;2023-06-10T05:50:21;94207.75;;;20.42;65.90
29197;BME280;62796;42.654;23.316;2023-06-10T05:52:46;94212.09;;;20.51;65.73
29197;BME280;62796;42.654;23.316;2023-06-10T05:55:12;94210.22;;;20.54;65.77
29197;BME280;62796;42.654;23.316;2023-06-10T05:57:37;94213.63;;;20.60;65.39
29197;BME280;62796;42.654;23.316;2023-06-10T06:00:04;94212.31;;;20.61;65.00
29197;BME280;62796;42.654;23.316;2023-06-10T06:02:29;94218.50;;;20.59;65.24
29197;BME280;62796;42.654;23.316;2023-06-10T06:04:55;94222.63;;;20.66;65.14
29197;BME280;62796;42.654;23.316;2023-06-10T06:07:20;94226.03;;;20.72;65.29
29197;BME280;62796;42.654;23.316;2023-06-10T06:09:47;94224.53;;;20.78;65.67
29197;BME280;62796;42.654;23.316;2023-06-10T06:12:12;94217.78;;;20.74;65.00
29197;BME280;62796;42.654;23.316;2023-06-10T06:14:38;94210.09;;;20.67;65.00
29197;BME280;62796;42.654;23.316;2023-06-10T06:17:06;94222.63;;;20.66;65.35
29197;BME280;62796;42.654;23.316;2023-06-10T06:19:32;94217.00;;;20.73;64.93
29197;BME280;62796;42.654;23.316;2023-06-10T06:21:58;94217.03;;;20.81;64.62
29197;BME280;62796;42.654;23.316;2023-06-10T06:24:23;94214.44;;;20.90;64.37
29197;BME280;62796;42.654;23.316;2023-06-10T06:26:48;94222.69;;;20.96;64.07
29197;BME280;62796;42.654;23.316;2023-06-10T06:29:14;94213.47;;;20.80;63.61
29197;BME280;62796;42.654;23.316;2023-06-10T06:31:39;94221.16;;;20.80;64.01
29197;BME280;62796;42.654;23.316;2023-06-10T06:34:05;94228.47;;;20.83;63.97
29197;BME280;62796;42.654;23.316;2023-06-10T06:36:30;94225.69;;;20.90;63.41
29197;BME280;62796;42.654;23.316;2023-06-10T06:38:56;94207.47;;;20.91;63.30
29197;BME280;62796;42.654;23.316;2023-06-10T06:41:22;94220.06;;;20.98;62.81
29197;BME280;62796;42.654;23.316;2023-06-10T06:43:47;94216.88;;;21.02;62.68
29197;BME280;62796;42.654;23.316;2023-06-10T06:46:13;94218.22;;;21.08;62.50
29197;BME280;62796;42.654;23.316;2023-06-10T06:48:40;94213.34;;;21.16;61.71
29197;BME280;62796;42.654;23.316;2023-06-10T06:51:05;94215.41;;;21.08;61.27
29197;BME280;62796;42.654;23.316;2023-06-10T06:53:30;94208.78;;;20.83;61.87
29197;BME280;62796;42.654;23.316;2023-06-10T06:55:56;94211.00;;;20.62;61.80
29197;BME280;62796;42.654;23.316;2023-06-10T06:58:21;94212.28;;;20.46;61.88
29197;BME280;62796;42.654;23.316;2023-06-10T07:00:47;94200.31;;;20.17;63.04
29197;BME280;62796;42.654;23.316;2023-06-10T07:03:12;94201.72;;;20.31;63.17
29197;BME280;62796;42.654;23.316;2023-06-10T07:05:38;94208.00;;;20.60;62.58
29197;BME280;62796;42.654;23.316;2023-06-10T07:08:04;94202.19;;;20.65;62.08
29197;BME280;62796;42.654;23.316;2023-06-10T07:10:29;94204.22;;;20.50;62.00
29197;BME280;62796;42.654;23.316;2023-06-10T07:12:54;94197.50;;;20.68;61.85
29197;BME280;62796;42.654;23.316;2023-06-10T07:15:20;94201.63;;;20.82;61.39
29197;BME280;62796;42.654;23.316;2023-06-10T07:17:45;94195.28;;;21.04;60.35
29197;BME280;62796;42.654;23.316;2023-06-10T07:20:11;94197.75;;;21.30;59.36
29197;BME280;62796;42.654;23.316;2023-06-10T07:22:37;94189.28;;;21.53;57.09
29197;BME280;62796;42.654;23.316;2023-06-10T07:25:04;94188.88;;;21.64;57.45
29197;BME280;62796;42.654;23.316;2023-06-10T07:27:30;94181.69;;;22.01;56.87
29197;BME280;62796;42.654;23.316;2023-06-10T07:29:55;94189.88;;;22.14;55.63
29197;BME280;62796;42.654;23.316;2023-06-10T07:32:21;94188.13;;;22.26;54.54
29197;BME280;62796;42.654;23.316;2023-06-10T07:34:47;94196.91;;;22.45;54.00
29197;BME280;62796;42.654;23.316;2023-06-10T07:37:13;94194.13;;;22.70;53.45
29197;BME280;62796;42.654;23.316;2023-06-10T07:39:38;94193.09;;;22.50;52.60
29197;BME280;62796;42.654;23.316;2023-06-10T07:42:04;94186.25;;;22.69;53.19
29197;BME280;62796;42.654;23.316;2023-06-10T07:44:29;94191.50;;;22.97;52.88
29197;BME280;62796;42.654;23.316;2023-06-10T07:46:55;94198.00;;;23.14;52.28
29197;BME280;62796;42.654;23.316;2023-06-10T07:49:20;94182.81;;;22.78;52.18
29197;BME280;62796;42.654;23.316;2023-06-10T07:51:47;94191.44;;;22.80;52.23
29197;BME280;62796;42.654;23.316;2023-06-10T07:54:13;94194.69;;;23.01;51.35
29197;BME280;62796;42.654;23.316;2023-06-10T07:56:39;94197.63;;;23.35;50.76
29197;BME280;62796;42.654;23.316;2023-06-10T07:59:04;94175.44;;;23.56;50.21
29197;BME280;62796;42.654;23.316;2023-06-10T08:01:30;94194.72;;;23.50;49.68
29197;BME280;62796;42.654;23.316;2023-06-10T08:03:56;94187.72;;;23.68;49.88
29197;BME280;62796;42.654;23.316;2023-06-10T08:06:21;94197.56;;;24.02;48.29
29197;BME280;62796;42.654;23.316;2023-06-10T08:08:47;94199.50;;;24.16;48.36
29197;BME280;62796;42.654;23.316;2023-06-10T08:11:13;94190.47;;;24.45;46.74
29197;BME280;62796;42.654;23.316;2023-06-10T08:13:39;94189.03;;;24.53;46.13
29197;BME280;62796;42.654;23.316;2023-06-10T08:16:05;94188.66;;;24.84;45.81
29197;BME280;62796;42.654;23.316;2023-06-10T08:18:30;94183.53;;;24.99;44.42
29197;BME280;62796;42.654;23.316;2023-06-10T08:20:56;94175.50;;;25.05;43.30
29197;BME280;62796;42.654;23.316;2023-06-10T08:23:21;94182.13;;;25.27;42.60
29197;BME280;62796;42.654;23.316;2023-06-10T08:25:47;94174.34;;;25.54;41.94
29197;BME280;62796;42.654;23.316;2023-06-10T08:28:12;94168.25;;;25.67;41.08
29197;BME280;62796;42.654;23.316;2023-06-10T08:30:38;94163.50;;;25.89;40.81
29197;BME280;62796;42.654;23.316;2023-06-10T08:33:03;94171.44;;;26.10;40.03
29197;BME280;62796;42.654;23.316;2023-06-10T08:35:28;94165.13;;;26.02;39.74
29197;BME280;62796;42.654;23.316;2023-06-10T08:37:54;94166.50;;;26.01;39.94
29197;BME280;62796;42.654;23.316;2023-06-10T08:40:19;94159.19;;;25.98;40.04
29197;BME280;62796;42.654;23.316;2023-06-10T08:45:30;94152.25;;;26.58;38.83
29197;BME280;62796;42.654;23.316;2023-06-10T08:48:04;94157.34;;;26.60;36.60
29197;BME280;62796;42.654;23.316;2023-06-10T08:50:37;94155.91;;;26.30;36.19
29197;BME280;62796;42.654;23.316;2023-06-10T08:53:07;94149.59;;;26.51;36.68
29197;BME280;62796;42.654;23.316;2023-06-10T08:55:37;94146.88;;;26.72;36.66
29197;BME280;62796;42.654;23.316;2023-06-10T08:58:03;94146.97;;;26.93;35.82
29197;BME280;62796;42.654;23.316;2023-06-10T09:00:30;94144.81;;;27.13;35.58
29197;BME280;62796;42.654;23.316;2023-06-10T09:02:57;94142.34;;;27.28;36.57
29197;BME280;62796;42.654;23.316;2023-06-10T09:05:23;94137.81;;;27.44;35.41
29197;BME280;62796;42.654;23.316;2023-06-10T09:07:51;94142.63;;;27.63;33.67
29197;BME280;62796;42.654;23.316;2023-06-10T09:10:17;94135.31;;;27.81;33.56
29197;BME280;62796;42.654;23.316;2023-06-10T09:12:42;94136.13;;;27.93;33.05
29197;BME280;62796;42.654;23.316;2023-06-10T09:15:08;94133.81;;;28.01;33.15
29197;BME280;62796;42.654;23.316;2023-06-10T09:17:34;94136.53;;;28.21;33.21
29197;BME280;62796;42.654;23.316;2023-06-10T09:20:02;94137.22;;;28.10;32.84
29197;BME280;62796;42.654;23.316;2023-06-10T09:22:28;94135.47;;;28.05;32.65
29197;BME280;62796;42.654;23.316;2023-06-10T09:25:03;94131.41;;;27.86;33.40
29197;BME280;62796;42.654;23.316;2023-06-10T09:27:30;94131.25;;;28.06;33.00
29197;BME280;62796;42.654;23.316;2023-06-10T09:29:57;94130.78;;;28.42;33.55
29197;BME280;62796;42.654;23.316;2023-06-10T09:32:23;94124.13;;;28.82;33.78
29197;BME280;62796;42.654;23.316;2023-06-10T09:34:49;94126.63;;;29.10;32.31
29197;BME280;62796;42.654;23.316;2023-06-10T09:37:25;94125.41;;;29.25;31.11
29197;BME280;62796;42.654;23.316;2023-06-10T09:40:04;94122.91;;;29.20;31.55
29197;BME280;62796;42.654;23.316;2023-06-10T09:42:32;94111.91;;;29.26;31.50
29197;BME280;62796;42.654;23.316;2023-06-10T09:44:59;94111.16;;;29.37;31.04
29197;BME280;62796;42.654;23.316;2023-06-10T09:47:24;94110.91;;;29.56;31.23
29197;BME280;62796;42.654;23.316;2023-06-10T09:49:50;94108.16;;;29.58;30.04
29197;BME280;62796;42.654;23.316;2023-06-10T09:52:26;94111.00;;;29.58;29.63
29197;BME280;62796;42.654;23.316;2023-06-10T09:54:52;94101.13;;;29.36;29.11
29197;BME280;62796;42.654;23.316;2023-06-10T09:57:18;94104.69;;;29.25;30.48
29197;BME280;62796;42.654;23.316;2023-06-10T09:59:45;94104.41;;;28.97;30.51
29197;BME280;62796;42.654;23.316;2023-06-10T10:02:17;94096.72;;;28.88;30.81
29197;BME280;62796;42.654;23.316;2023-06-10T10:04:43;94106.00;;;28.66;31.00
29197;BME280;62796;42.654;23.316;2023-06-10T10:07:10;94085.94;;;28.31;31.64
29197;BME280;62796;42.654;23.316;2023-06-10T10:09:39;94095.44;;;28.24;31.39
29197;BME280;62796;42.654;23.316;2023-06-10T10:12:10;94083.69;;;28.29;31.03
29197;BME280;62796;42.654;23.316;2023-06-10T10:14:41;94081.78;;;28.55;31.29
29197;BME280;62796;42.654;23.316;2023-06-10T10:17:11;94082.22;;;28.73;31.10
29197;BME280;62796;42.654;23.316;2023-06-10T10:19:53;94079.41;;;28.96;30.42
29197;BME280;62796;42.654;23.316;2023-06-10T10:22:31;94074.84;;;29.26;30.45
29197;BME280;62796;42.654;23.316;2023-06-10T10:25:02;94074.03;;;29.48;30.87
29197;BME280;62796;42.654;23.316;2023-06-10T10:27:39;94068.31;;;29.60;29.93
29197;BME280;62796;42.654;23.316;2023-06-10T10:30:06;94067.84;;;29.52;30.15
29197;BME280;62796;42.654;23.316;2023-06-10T10:32:38;94068.34;;;29.48;29.37
29197;BME280;62796;42.654;23.316;2023-06-10T10:35:09;94073.81;;;29.44;29.66
29197;BME280;62796;42.654;23.316;2023-06-10T10:37:38;94074.06;;;29.37;29.97
29197;BME280;62796;42.654;23.316;2023-06-10T10:40:06;94073.97;;;29.35;30.14
29197;BME280;62796;42.654;23.316;2023-06-10T10:42:32;94074.19;;;29.50;29.95
29197;BME280;62796;42.654;23.316;2023-06-10T10:44:58;94058.41;;;29.61;29.05
29197;BME280;62796;42.654;23.316;2023-06-10T10:47:27;94063.25;;;29.58;29.41
29197;BME280;62796;42.654;23.316;2023-06-10T10:49:54;94055.13;;;29.78;29.44
29197;BME280;62796;42.654;23.316;2023-06-10T10:52:20;94052.78;;;30.11;28.39
29197;BME280;62796;42.654;23.316;2023-06-10T10:54:46;94062.81;;;30.24;nan
29197;BME280;62796;42.654;23.316;2023-06-10T10:57:13;94058.78;;;30.29;27.61
29197;BME280;62796;42.654;23.316;2023-06-10T10:59:51;94051.91;;;30.46;27.68
29197;BME280;62796;42.654;23.316;2023-06-10T11:02:45;94052.94;;;30.13;27.00
29197;BME280;62796;42.654;23.316;2023-06-10T11:05:14;94047.31;;;30.15;27.56
29197;BME280;62796;42.654;23.316;2023-06-10T11:07:40;94052.53;;;30.19;27.51
29197;BME280;62796;42.654;23.316;2023-06-10T11:10:10;94041.03;;;30.31;26.80
29197;BME280;62796;42.654;23.316;2023-06-10T11:15:11;94027.22;;;30.13;26.72
29197;BME280;62796;42.654;23.316;2023-06-10T11:17:37;94034.41;;;30.14;26.83
29197;BME280;62796;42.654;23.316;2023-06-10T11:20:02;94023.53;;;29.99;27.35
29197;BME280;62796;42.654;23.316;2023-06-10T11:22:28;94020.00;;;30.12;28.12
29197;BME280;62796;42.654;23.316;2023-06-10T11:24:53;94020.59;;;29.97;28.46
29197;BME280;62796;42.654;23.316;2023-06-10T11:27:20;94022.63;;;29.35;29.99
29197;BME280;62796;42.654;23.316;2023-06-10T11:32:32;94018.53;;;29.75;28.55
29197;BME280;62796;42.654;23.316;2023-06-10T11:34:58;94016.19;;;29.71;28.42
29197;BME280;62796;42.654;23.316;2023-06-10T11:37:24;94012.56;;;29.82;28.48
29197;BME280;62796;42.654;23.316;2023-06-10T11:39:53;94007.50;;;29.69;28.89
29197;BME280;62796;42.654;23.316;2023-06-10T11:42:19;94001.78;;;29.69;29.17
29197;BME280;62796;42.654;23.316;2023-06-10T11:44:52;93996.66;;;29.79;29.37
29197;BME280;62796;42.654;23.316;2023-06-10T11:47:18;93999.44;;;30.02;28.42
29197;BME280;62796;42.654;23.316;2023-06-10T11:49:45;94005.75;;;30.12;28.05
29197;BME280;62796;42.654;23.316;2023-06-10T11:52:11;93999.69;;;30.06;28.81
29197;BME280;62796;42.654;23.316;2023-06-10T11:54:37;93992.72;;;30.09;28.07
29197;BME280;62796;42.654;23.316;2023-06-10T11:57:03;93995.47;;;30.07;28.40
29197;BME280;62796;42.654;23.316;2023-06-10T11:59:29;94000.53;;;30.09;28.38
29197;BME280;62796;42.654;23.316;2023-06-10T12:01:55;93989.25;;;29.74;29.00
29197;BME280;62796;42.654;23.316;2023-06-10T12:04:21;93994.88;;;29.60;29.07
29197;BME280;62796;42.654;23.316;2023-06-10T12:06:49;94001.09;;;29.57;29.05
29197;BME280;62796;42.654;23.316;2023-06-10T12:09:16;93997.66;;;29.47;29.82
29197;BME280;62796;42.654;23.316;2023-06-10T12:11:43;93996.69;;;29.31;30.04
29197;BME280;62796;42.654;23.316;2023-06-10T12:14:09;93995.00;;;28.91;30.34
29197;BME280;62796;42.654;23.316;2023-06-10T12:16:34;93995.97;;;28.95;30.32
29197;BME280;62796;42.654;23.316;2023-06-10T12:19:04;93986.53;;;29.04;30.42
29197;BME280;62796;42.654;23.316;2023-06-10T12:21:31;93981.56;;;29.17;29.91
29197;BME280;62796;42.654;23.316;2023-06-10T12:24:03;93989.28;;;29.02;30.34
29197;BME280;62796;42.654;23.316;2023-06-10T12:26:45;93984.22;;;28.89;30.08
29197;BME280;62796;42.654;23.316;2023-06-10T12:29:18;93986.69;;;28.83;30.27
29197;BME280;62796;42.654;23.316;2023-06-10T12:34:18;93978.25;;;28.85;29.05
29197;BME280;62796;42.654;23.316;2023-06-10T12:36:48;93984.78;;;28.53;29.28
29197;BME280;62796;42.654;23.316;2023-06-10T12:39:14;93971.03;;;28.49;28.47
29197;BME280;62796;42.654;23.316;2023-06-10T12:41:39;93972.41;;;28.37;28.97
29197;BME280;62796;42.654;23.316;2023-06-10T12:44:05;93978.75;;;28.02;29.51
29197;BME280;62796;42.654;23.316;2023-06-10T12:46:37;93962.00;;;28.30;27.90
29197;BME280;62796;42.654;23.316;2023-06-10T12:49:02;93957.53;;;28.38;28.11
29197;BME280;62796;42.654;23.316;2023-06-10T12:51:28;93962.13;;;28.43;28.63
29197;BME280;62796;42.654;23.316;2023-06-10T12:53:53;93962.53;;;28.61;28.36
29197;BME280;62796;42.654;23.316;2023-06-10T12:56:19;93968.44;;;28.42;27.56
29197;BME280;62796;42.654;23.316;2023-06-10T12:58:44;93967.66;;;28.07;27.86
29197;BME280;62796;42.654;23.316;2023-06-10T13:01:09;93972.88;;;28.10;28.54
29197;BME280;62796;42.654;23.316;2023-06-10T13:03:35;93967.41;;;28.26;27.93